sensor_id;sensor_type;location;lat;lon;timestamp;P1;durP1;ratioP1;P2;durP2;ratioP2
48596;SDS011;34382;43.160;24.148;2024-02-28T00:01:01;28.58;;;15.60;;
48596;SDS011;34382;43.160;24.148;2024-02-28T00:02:34;28.45;;;15.48;;
48596;SDS011;34382;43.160;24.148;2024-02-28T00:04:06;33.65;;;15.30;;
48596;SDS011;34382;43.160;24.148;2024-02-28T00:05:38;28.38;;;16.95;;
48596;SDS011;34382;43.160;24.148;2024-02-28T00:07:11;29.92;;;17.08;;
48596;SDS011;34382;43.160;24.148;2024-02-28T00:08:43;28.65;;;14.48;;
48596;SDS011;34382;43.160;24.148;2024-02-28T00:10:16;27.98;;;16.38;;
48596;SDS011;34382;43.160;24.148;2024-02-28T00:11:48;28.48;;;16.50;;
48596;SDS011;34382;43.160;24.148;2024-02-28T00:13:21;34.60;;;16.25;;
48596;SDS011;34382;43.160;24.148;2024-02-28T00:14:54;28.25;;;16.27;;
48596;SDS011;34382;43.160;24.148;2024-02-28T00:16:27;30.13;;;16.75;;
48596;SDS011;34382;43.160;24.148;2024-02-28T00:17:59;32.30;;;15.75;;
48596;SDS011;34382;43.160;24.148;2024-02-28T00:19:32;26.73;;;15.35;;
48596;SDS011;34382;43.160;24.148;2024-02-28T00:21:04;26.73;;;14.27;;
48596;SDS011;34382;43.160;24.148;2024-02-28T00:22:37;24.33;;;13.77;;
48596;SDS011;34382;43.160;24.148;2024-02-28T00:40:05;29.00;;;15.00;;
48596;SDS011;34382;43.160;24.148;2024-02-28T00:41:38;28.77;;;15.25;;
48596;SDS011;34382;43.160;24.148;2024-02-28T00:43:10;26.58;;;14.95;;
48596;SDS011;34382;43.160;24.148;2024-02-28T00:44:42;24.73;;;14.43;;
48596;SDS011;34382;43.160;24.148;2024-02-28T00:46:14;26.75;;;15.27;;
48596;SDS011;34382;43.160;24.148;2024-02-28T00:47:47;25.38;;;14.75;;
48596;SDS011;34382;43.160;24.148;2024-02-28T00:49:19;27.70;;;16.02;;
48596;SDS011;34382;43.160;24.148;2024-02-28T00:50:53;31.23;;;16.92;;
48596;SDS011;34382;43.160;24.148;2024-02-28T00:52:25;30.58;;;16.60;;
48596;SDS011;34382;43.160;24.148;2024-02-28T00:53:57;29.90;;;15.13;;
48596;SDS011;34382;43.160;24.148;2024-02-28T00:55:29;28.50;;;16.17;;
48596;SDS011;34382;43.160;24.148;2024-02-28T00:57:02;30.63;;;17.55;;
48596;SDS011;34382;43.160;24.148;2024-02-28T00:58:34;24.55;;;14.07;;
48596;SDS011;34382;43.160;24.148;2024-02-28T01:00:08;28.42;;;15.52;;
48596;SDS011;34382;43.160;24.148;2024-02-28T01:01:41;28.63;;;16.05;;
48596;SDS011;34382;43.160;24.148;2024-02-28T01:03:14;28.02;;;14.90;;
48596;SDS011;34382;43.160;24.148;2024-02-28T01:04:47;29.67;;;15.05;;
48596;SDS011;34382;43.160;24.148;2024-02-28T01:06:19;28.23;;;14.23;;
48596;SDS011;34382;43.160;24.148;2024-02-28T01:07:52;25.58;;;14.07;;
48596;SDS011;34382;43.160;24.148;2024-02-28T01:09:24;25.63;;;14.93;;
48596;SDS011;34382;43.160;24.148;2024-02-28T01:10:56;30.95;;;15.25;;
48596;SDS011;34382;43.160;24.148;2024-02-28T01:12:28;28.95;;;15.25;;
48596;SDS011;34382;43.160;24.148;2024-02-28T01:14:00;27.65;;;15.00;;
48596;SDS011;34382;43.160;24.148;2024-02-28T01:15:35;31.80;;;16.05;;
48596;SDS011;34382;43.160;24.148;2024-02-28T01:17:07;32.10;;;16.65;;
48596;SDS011;34382;43.160;24.148;2024-02-28T01:18:39;32.15;;;15.98;;
48596;SDS011;34382;43.160;24.148;2024-02-28T01:20:12;26.70;;;14.85;;
48596;SDS011;34382;43.160;24.148;2024-02-28T01:21:44;33.13;;;16.35;;
48596;SDS011;34382;43.160;24.148;2024-02-28T01:23:16;27.38;;;15.38;;
48596;SDS011;34382;43.160;24.148;2024-02-28T01:24:49;32.60;;;15.95;;
48596;SDS011;34382;43.160;24.148;2024-02-28T01:26:22;32.78;;;17.63;;
48596;SDS011;34382;43.160;24.148;2024-02-28T01:27:55;27.80;;;16.05;;
48596;SDS011;34382;43.160;24.148;2024-02-28T01:29:30;31.17;;;17.00;;
48596;SDS011;34382;43.160;24.148;2024-02-28T01:31:02;35.13;;;18.30;;
48596;SDS011;34382;43.160;24.148;2024-02-28T01:32:34;44.60;;;20.83;;
48596;SDS011;34382;43.160;24.148;2024-02-28T01:34:07;31.45;;;16.45;;
48596;SDS011;34382;43.160;24.148;2024-02-28T01:35:40;34.13;;;18.10;;
48596;SDS011;34382;43.160;24.148;2024-02-28T01:37:12;37.20;;;19.35;;
48596;SDS011;34382;43.160;24.148;2024-02-28T01:38:44;34.50;;;17.75;;
48596;SDS011;34382;43.160;24.148;2024-02-28T01:40:18;33.80;;;17.35;;
48596;SDS011;34382;43.160;24.148;2024-02-28T01:41:51;32.35;;;16.70;;
48596;SDS011;34382;43.160;24.148;2024-02-28T01:43:24;33.40;;;17.63;;
48596;SDS011;34382;43.160;24.148;2024-02-28T02:03:44;46.38;;;21.05;;
48596;SDS011;34382;43.160;24.148;2024-02-28T02:05:16;47.45;;;20.45;;
48596;SDS011;34382;43.160;24.148;2024-02-28T02:40:30;39.70;;;22.58;;
48596;SDS011;34382;43.160;24.148;2024-02-28T02:42:02;48.40;;;21.92;;
48596;SDS011;34382;43.160;24.148;2024-02-28T02:43:34;44.97;;;21.60;;
48596;SDS011;34382;43.160;24.148;2024-02-28T02:45:07;48.72;;;22.33;;
48596;SDS011;34382;43.160;24.148;2024-02-28T02:46:39;50.47;;;21.10;;
48596;SDS011;34382;43.160;24.148;2024-02-28T02:48:11;44.85;;;21.63;;
48596;SDS011;34382;43.160;24.148;2024-02-28T02:49:44;41.83;;;21.98;;
48596;SDS011;34382;43.160;24.148;2024-02-28T02:51:16;47.38;;;21.83;;
48596;SDS011;34382;43.160;24.148;2024-02-28T02:54:21;42.78;;;19.98;;
48596;SDS011;34382;43.160;24.148;2024-02-28T02:55:54;43.95;;;20.88;;
48596;SDS011;34382;43.160;24.148;2024-02-28T02:57:26;45.00;;;22.23;;
48596;SDS011;34382;43.160;24.148;2024-02-28T02:58:58;46.08;;;20.75;;
48596;SDS011;34382;43.160;24.148;2024-02-28T03:00:30;48.60;;;21.55;;
48596;SDS011;34382;43.160;24.148;2024-02-28T03:02:03;53.50;;;21.17;;
48596;SDS011;34382;43.160;24.148;2024-02-28T03:03:36;42.78;;;20.33;;
48596;SDS011;34382;43.160;24.148;2024-02-28T03:05:09;49.78;;;22.08;;
48596;SDS011;34382;43.160;24.148;2024-02-28T03:06:41;52.95;;;21.88;;
48596;SDS011;34382;43.160;24.148;2024-02-28T03:08:14;47.75;;;22.77;;
48596;SDS011;34382;43.160;24.148;2024-02-28T03:09:47;50.13;;;22.10;;
48596;SDS011;34382;43.160;24.148;2024-02-28T03:11:19;54.00;;;20.90;;
48596;SDS011;34382;43.160;24.148;2024-02-28T03:12:51;48.47;;;22.73;;
48596;SDS011;34382;43.160;24.148;2024-02-28T03:14:24;42.35;;;20.90;;
48596;SDS011;34382;43.160;24.148;2024-02-28T03:15:57;50.58;;;22.38;;
48596;SDS011;34382;43.160;24.148;2024-02-28T03:17:29;53.65;;;22.05;;
48596;SDS011;34382;43.160;24.148;2024-02-28T03:19:01;41.45;;;21.33;;
48596;SDS011;34382;43.160;24.148;2024-02-28T03:20:34;49.90;;;21.65;;
48596;SDS011;34382;43.160;24.148;2024-02-28T03:22:08;47.72;;;20.90;;
48596;SDS011;34382;43.160;24.148;2024-02-28T03:23:40;55.38;;;22.65;;
48596;SDS011;34382;43.160;24.148;2024-02-28T04:29:44;42.03;;;22.23;;
48596;SDS011;34382;43.160;24.148;2024-02-28T06:47:51;34.97;;;19.88;;
48596;SDS011;34382;43.160;24.148;2024-02-28T06:49:23;37.63;;;19.45;;
48596;SDS011;34382;43.160;24.148;2024-02-28T07:54:41;38.60;;;21.00;;
48596;SDS011;34382;43.160;24.148;2024-02-28T07:56:15;34.50;;;20.13;;
48596;SDS011;34382;43.160;24.148;2024-02-28T07:57:52;30.67;;;18.33;;
48596;SDS011;34382;43.160;24.148;2024-02-28T07:59:25;32.78;;;19.83;;
48596;SDS011;34382;43.160;24.148;2024-02-28T08:00:57;33.17;;;18.98;;
48596;SDS011;34382;43.160;24.148;2024-02-28T08:02:30;33.50;;;19.85;;
48596;SDS011;34382;43.160;24.148;2024-02-28T08:49:57;33.95;;;21.10;;
48596;SDS011;34382;43.160;24.148;2024-02-28T08:51:30;39.78;;;23.95;;
48596;SDS011;34382;43.160;24.148;2024-02-28T08:53:02;48.17;;;28.50;;
48596;SDS011;34382;43.160;24.148;2024-02-28T08:54:35;42.13;;;24.23;;
48596;SDS011;34382;43.160;24.148;2024-02-28T08:56:07;44.17;;;24.70;;
48596;SDS011;34382;43.160;24.148;2024-02-28T08:57:42;45.15;;;26.83;;
48596;SDS011;34382;43.160;24.148;2024-02-28T08:59:15;50.05;;;30.15;;
48596;SDS011;34382;43.160;24.148;2024-02-28T09:00:47;45.13;;;26.63;;
48596;SDS011;34382;43.160;24.148;2024-02-28T09:02:19;46.30;;;26.77;;
48596;SDS011;34382;43.160;24.148;2024-02-28T09:03:51;39.25;;;23.13;;
48596;SDS011;34382;43.160;24.148;2024-02-28T09:05:24;40.08;;;24.17;;
48596;SDS011;34382;43.160;24.148;2024-02-28T09:06:57;38.75;;;22.85;;
48596;SDS011;34382;43.160;24.148;2024-02-28T09:10:04;46.30;;;28.27;;
48596;SDS011;34382;43.160;24.148;2024-02-28T09:11:38;40.22;;;23.02;;
48596;SDS011;34382;43.160;24.148;2024-02-28T09:13:11;42.63;;;24.98;;
48596;SDS011;34382;43.160;24.148;2024-02-28T09:14:44;32.88;;;21.63;;
48596;SDS011;34382;43.160;24.148;2024-02-28T09:17:49;35.05;;;20.23;;
48596;SDS011;34382;43.160;24.148;2024-02-28T09:19:25;36.65;;;22.02;;
48596;SDS011;34382;43.160;24.148;2024-02-28T09:20:57;35.80;;;22.25;;
48596;SDS011;34382;43.160;24.148;2024-02-28T09:22:29;32.00;;;20.35;;
48596;SDS011;34382;43.160;24.148;2024-02-28T09:24:01;38.10;;;21.25;;
48596;SDS011;34382;43.160;24.148;2024-02-28T09:25:34;35.63;;;21.15;;
48596;SDS011;34382;43.160;24.148;2024-02-28T09:27:07;36.05;;;20.15;;
48596;SDS011;34382;43.160;24.148;2024-02-28T09:28:39;33.13;;;19.60;;
48596;SDS011;34382;43.160;24.148;2024-02-28T09:30:11;36.22;;;21.48;;
48596;SDS011;34382;43.160;24.148;2024-02-28T09:31:44;33.30;;;20.60;;
48596;SDS011;34382;43.160;24.148;2024-02-28T09:33:16;35.53;;;20.90;;
48596;SDS011;34382;43.160;24.148;2024-02-28T09:34:51;33.08;;;19.98;;
48596;SDS011;34382;43.160;24.148;2024-02-28T09:36:24;35.07;;;21.27;;
48596;SDS011;34382;43.160;24.148;2024-02-28T09:37:56;34.47;;;21.08;;
48596;SDS011;34382;43.160;24.148;2024-02-28T09:39:29;33.38;;;19.80;;
48596;SDS011;34382;43.160;24.148;2024-02-28T09:41:01;33.45;;;21.75;;
48596;SDS011;34382;43.160;24.148;2024-02-28T09:42:33;34.15;;;20.50;;
48596;SDS011;34382;43.160;24.148;2024-02-28T09:44:06;33.17;;;21.25;;
48596;SDS011;34382;43.160;24.148;2024-02-28T09:45:39;34.38;;;21.08;;
48596;SDS011;34382;43.160;24.148;2024-02-28T09:47:14;34.67;;;20.77;;
48596;SDS011;34382;43.160;24.148;2024-02-28T09:48:47;42.67;;;26.55;;
48596;SDS011;34382;43.160;24.148;2024-02-28T09:50:21;42.88;;;26.58;;
48596;SDS011;34382;43.160;24.148;2024-02-28T09:51:54;43.88;;;28.20;;
48596;SDS011;34382;43.160;24.148;2024-02-28T09:53:26;49.13;;;28.80;;
48596;SDS011;34382;43.160;24.148;2024-02-28T09:54:59;48.03;;;28.27;;
48596;SDS011;34382;43.160;24.148;2024-02-28T09:56:31;46.53;;;27.55;;
48596;SDS011;34382;43.160;24.148;2024-02-28T09:59:37;46.90;;;28.52;;
48596;SDS011;34382;43.160;24.148;2024-02-28T10:01:27;46.88;;;28.33;;
48596;SDS011;34382;43.160;24.148;2024-02-28T10:03:00;50.50;;;29.98;;
48596;SDS011;34382;43.160;24.148;2024-02-28T10:04:32;60.83;;;34.80;;
48596;SDS011;34382;43.160;24.148;2024-02-28T10:06:05;55.75;;;31.85;;
48596;SDS011;34382;43.160;24.148;2024-02-28T10:07:40;50.05;;;30.00;;
48596;SDS011;34382;43.160;24.148;2024-02-28T10:09:12;57.13;;;33.20;;
48596;SDS011;34382;43.160;24.148;2024-02-28T10:10:48;53.90;;;31.00;;
48596;SDS011;34382;43.160;24.148;2024-02-28T10:12:20;56.33;;;32.25;;
48596;SDS011;34382;43.160;24.148;2024-02-28T10:13:53;55.83;;;32.00;;
48596;SDS011;34382;43.160;24.148;2024-02-28T10:15:27;54.00;;;31.73;;
48596;SDS011;34382;43.160;24.148;2024-02-28T10:16:59;57.30;;;34.05;;
48596;SDS011;34382;43.160;24.148;2024-02-28T10:18:32;51.65;;;30.90;;
48596;SDS011;34382;43.160;24.148;2024-02-28T10:20:04;58.35;;;32.22;;
48596;SDS011;34382;43.160;24.148;2024-02-28T10:21:37;57.63;;;32.30;;
48596;SDS011;34382;43.160;24.148;2024-02-28T10:23:09;51.53;;;31.10;;
48596;SDS011;34382;43.160;24.148;2024-02-28T10:24:42;52.78;;;29.90;;
48596;SDS011;34382;43.160;24.148;2024-02-28T10:26:14;50.22;;;29.65;;
48596;SDS011;34382;43.160;24.148;2024-02-28T10:27:46;46.92;;;28.92;;
48596;SDS011;34382;43.160;24.148;2024-02-28T10:29:19;48.83;;;30.13;;
48596;SDS011;34382;43.160;24.148;2024-02-28T10:30:51;50.22;;;29.55;;
48596;SDS011;34382;43.160;24.148;2024-02-28T10:32:25;48.67;;;29.15;;
48596;SDS011;34382;43.160;24.148;2024-02-28T10:33:58;47.55;;;28.83;;
48596;SDS011;34382;43.160;24.148;2024-02-28T10:35:32;44.50;;;29.40;;
48596;SDS011;34382;43.160;24.148;2024-02-28T10:37:06;45.78;;;28.92;;
48596;SDS011;34382;43.160;24.148;2024-02-28T10:38:40;47.83;;;29.02;;
48596;SDS011;34382;43.160;24.148;2024-02-28T10:40:13;57.05;;;30.58;;
48596;SDS011;34382;43.160;24.148;2024-02-28T10:41:46;47.00;;;29.50;;
48596;SDS011;34382;43.160;24.148;2024-02-28T10:43:19;50.45;;;30.20;;
48596;SDS011;34382;43.160;24.148;2024-02-28T10:44:52;48.10;;;29.20;;
48596;SDS011;34382;43.160;24.148;2024-02-28T10:46:45;49.22;;;28.23;;
48596;SDS011;34382;43.160;24.148;2024-02-28T10:48:21;49.10;;;28.85;;
48596;SDS011;34382;43.160;24.148;2024-02-28T10:49:53;52.15;;;29.45;;
48596;SDS011;34382;43.160;24.148;2024-02-28T10:51:26;42.33;;;26.98;;
48596;SDS011;34382;43.160;24.148;2024-02-28T10:53:00;44.28;;;25.83;;
48596;SDS011;34382;43.160;24.148;2024-02-28T10:54:34;42.58;;;26.33;;
48596;SDS011;34382;43.160;24.148;2024-02-28T10:56:09;43.38;;;26.70;;
48596;SDS011;34382;43.160;24.148;2024-02-28T10:57:43;45.28;;;26.55;;
48596;SDS011;34382;43.160;24.148;2024-02-28T10:59:17;44.75;;;26.35;;
48596;SDS011;34382;43.160;24.148;2024-02-28T11:00:50;45.67;;;26.60;;
48596;SDS011;34382;43.160;24.148;2024-02-28T11:02:23;43.78;;;27.13;;
48596;SDS011;34382;43.160;24.148;2024-02-28T11:03:56;40.95;;;25.50;;
48596;SDS011;34382;43.160;24.148;2024-02-28T11:05:38;39.60;;;25.13;;
48596;SDS011;34382;43.160;24.148;2024-02-28T11:07:21;42.50;;;25.40;;
48596;SDS011;34382;43.160;24.148;2024-02-28T11:08:54;38.72;;;24.58;;
48596;SDS011;34382;43.160;24.148;2024-02-28T11:10:31;36.67;;;24.25;;
48596;SDS011;34382;43.160;24.148;2024-02-28T11:12:07;39.58;;;23.48;;
48596;SDS011;34382;43.160;24.148;2024-02-28T11:13:57;40.00;;;24.08;;
48596;SDS011;34382;43.160;24.148;2024-02-28T11:15:31;39.58;;;24.02;;
48596;SDS011;34382;43.160;24.148;2024-02-28T11:17:04;35.50;;;22.85;;
48596;SDS011;34382;43.160;24.148;2024-02-28T11:18:50;39.97;;;23.15;;
48596;SDS011;34382;43.160;24.148;2024-02-28T11:20:22;37.45;;;22.38;;
48596;SDS011;34382;43.160;24.148;2024-02-28T11:21:54;35.85;;;23.30;;
48596;SDS011;34382;43.160;24.148;2024-02-28T11:39:08;38.92;;;22.58;;
48596;SDS011;34382;43.160;24.148;2024-02-28T11:40:48;33.17;;;21.65;;
48596;SDS011;34382;43.160;24.148;2024-02-28T11:42:21;31.42;;;20.83;;
48596;SDS011;34382;43.160;24.148;2024-02-28T11:43:53;33.58;;;21.73;;
48596;SDS011;34382;43.160;24.148;2024-02-28T11:45:25;33.40;;;20.40;;
48596;SDS011;34382;43.160;24.148;2024-02-28T11:46:57;32.88;;;20.45;;
48596;SDS011;34382;43.160;24.148;2024-02-28T11:48:30;34.60;;;21.70;;
48596;SDS011;34382;43.160;24.148;2024-02-28T11:50:02;32.90;;;21.40;;
48596;SDS011;34382;43.160;24.148;2024-02-28T11:51:42;34.63;;;21.73;;
48596;SDS011;34382;43.160;24.148;2024-02-28T11:53:15;31.38;;;21.00;;
48596;SDS011;34382;43.160;24.148;2024-02-28T11:54:47;31.17;;;20.48;;
48596;SDS011;34382;43.160;24.148;2024-02-28T11:56:19;31.00;;;20.83;;
48596;SDS011;34382;43.160;24.148;2024-02-28T11:57:53;33.40;;;20.92;;
48596;SDS011;34382;43.160;24.148;2024-02-28T11:59:25;31.77;;;21.63;;
48596;SDS011;34382;43.160;24.148;2024-02-28T12:00:58;31.25;;;20.55;;
48596;SDS011;34382;43.160;24.148;2024-02-28T12:02:30;31.85;;;21.10;;
48596;SDS011;34382;43.160;24.148;2024-02-28T12:05:42;33.92;;;20.02;;
48596;SDS011;34382;43.160;24.148;2024-02-28T12:07:16;31.13;;;19.60;;
48596;SDS011;34382;43.160;24.148;2024-02-28T12:08:49;28.92;;;19.88;;
48596;SDS011;34382;43.160;24.148;2024-02-28T12:10:22;29.92;;;19.63;;
48596;SDS011;34382;43.160;24.148;2024-02-28T12:11:54;33.85;;;20.50;;
48596;SDS011;34382;43.160;24.148;2024-02-28T12:13:27;33.83;;;22.15;;
48596;SDS011;34382;43.160;24.148;2024-02-28T12:14:59;31.27;;;20.65;;
48596;SDS011;34382;43.160;24.148;2024-02-28T12:16:32;32.58;;;18.27;;
48596;SDS011;34382;43.160;24.148;2024-02-28T12:18:08;26.92;;;18.35;;
48596;SDS011;34382;43.160;24.148;2024-02-28T12:19:42;29.65;;;19.58;;
48596;SDS011;34382;43.160;24.148;2024-02-28T12:21:14;30.83;;;20.13;;
48596;SDS011;34382;43.160;24.148;2024-02-28T12:22:47;29.00;;;18.88;;
48596;SDS011;34382;43.160;24.148;2024-02-28T12:24:19;29.73;;;19.42;;
48596;SDS011;34382;43.160;24.148;2024-02-28T12:25:51;29.60;;;19.35;;
48596;SDS011;34382;43.160;24.148;2024-02-28T12:27:23;31.20;;;19.05;;
48596;SDS011;34382;43.160;24.148;2024-02-28T12:28:56;35.45;;;18.50;;
48596;SDS011;34382;43.160;24.148;2024-02-28T12:30:28;28.30;;;18.48;;
48596;SDS011;34382;43.160;24.148;2024-02-28T12:32:00;28.95;;;19.05;;
48596;SDS011;34382;43.160;24.148;2024-02-28T12:33:33;27.83;;;18.10;;
48596;SDS011;34382;43.160;24.148;2024-02-28T12:35:05;29.75;;;18.50;;
48596;SDS011;34382;43.160;24.148;2024-02-28T12:36:39;27.77;;;18.33;;
48596;SDS011;34382;43.160;24.148;2024-02-28T12:38:13;29.40;;;18.63;;
48596;SDS011;34382;43.160;24.148;2024-02-28T12:41:19;36.78;;;21.60;;
48596;SDS011;34382;43.160;24.148;2024-02-28T12:42:52;29.55;;;18.90;;
48596;SDS011;34382;43.160;24.148;2024-02-28T12:44:24;28.10;;;18.10;;
48596;SDS011;34382;43.160;24.148;2024-02-28T12:45:56;28.58;;;17.33;;
48596;SDS011;34382;43.160;24.148;2024-02-28T12:47:29;29.35;;;17.38;;
48596;SDS011;34382;43.160;24.148;2024-02-28T12:49:03;26.10;;;16.98;;
48596;SDS011;34382;43.160;24.148;2024-02-28T12:50:35;24.98;;;16.92;;
48596;SDS011;34382;43.160;24.148;2024-02-28T12:52:08;28.38;;;16.77;;
48596;SDS011;34382;43.160;24.148;2024-02-28T12:53:40;28.95;;;17.17;;
48596;SDS011;34382;43.160;24.148;2024-02-28T12:55:13;26.83;;;15.17;;
48596;SDS011;34382;43.160;24.148;2024-02-28T12:56:47;27.48;;;16.77;;
48596;SDS011;34382;43.160;24.148;2024-02-28T14:09:18;22.55;;;13.82;;
48596;SDS011;34382;43.160;24.148;2024-02-28T14:10:50;20.20;;;12.90;;
48596;SDS011;34382;43.160;24.148;2024-02-28T14:12:25;23.87;;;14.77;;
48596;SDS011;34382;43.160;24.148;2024-02-28T14:13:58;22.83;;;14.32;;
48596;SDS011;34382;43.160;24.148;2024-02-28T14:40:01;23.33;;;14.73;;
48596;SDS011;34382;43.160;24.148;2024-02-28T14:41:36;25.23;;;14.32;;
48596;SDS011;34382;43.160;24.148;2024-02-28T14:43:08;19.08;;;12.88;;
48596;SDS011;34382;43.160;24.148;2024-02-28T14:44:43;21.95;;;14.10;;
48596;SDS011;34382;43.160;24.148;2024-02-28T14:46:16;22.23;;;13.43;;
48596;SDS011;34382;43.160;24.148;2024-02-28T14:47:53;25.92;;;14.48;;
48596;SDS011;34382;43.160;24.148;2024-02-28T14:49:25;29.02;;;15.45;;
48596;SDS011;34382;43.160;24.148;2024-02-28T14:50:58;22.73;;;14.18;;
48596;SDS011;34382;43.160;24.148;2024-02-28T14:52:31;26.27;;;13.73;;
48596;SDS011;34382;43.160;24.148;2024-02-28T15:24:01;29.60;;;16.73;;
48596;SDS011;34382;43.160;24.148;2024-02-28T15:25:34;26.67;;;16.30;;
48596;SDS011;34382;43.160;24.148;2024-02-28T15:27:06;30.52;;;17.58;;
48596;SDS011;34382;43.160;24.148;2024-02-28T15:28:39;38.28;;;19.05;;
48596;SDS011;34382;43.160;24.148;2024-02-28T15:30:11;45.80;;;20.88;;
48596;SDS011;34382;43.160;24.148;2024-02-28T15:31:44;46.42;;;21.55;;
48596;SDS011;34382;43.160;24.148;2024-02-28T15:33:16;43.72;;;23.63;;
48596;SDS011;34382;43.160;24.148;2024-02-28T15:34:51;45.45;;;22.88;;
48596;SDS011;34382;43.160;24.148;2024-02-28T15:36:23;46.50;;;26.08;;
48596;SDS011;34382;43.160;24.148;2024-02-28T15:37:56;50.05;;;29.23;;
48596;SDS011;34382;43.160;24.148;2024-02-28T15:39:31;44.90;;;28.67;;
48596;SDS011;34382;43.160;24.148;2024-02-28T15:41:03;57.70;;;29.67;;
48596;SDS011;34382;43.160;24.148;2024-02-28T15:42:36;36.97;;;22.70;;
48596;SDS011;34382;43.160;24.148;2024-02-28T15:44:08;32.65;;;20.40;;
48596;SDS011;34382;43.160;24.148;2024-02-28T15:45:41;30.73;;;18.33;;
48596;SDS011;34382;43.160;24.148;2024-02-28T15:47:15;30.77;;;16.70;;
48596;SDS011;34382;43.160;24.148;2024-02-28T15:48:47;29.02;;;17.08;;
48596;SDS011;34382;43.160;24.148;2024-02-28T15:50:20;29.00;;;18.92;;
48596;SDS011;34382;43.160;24.148;2024-02-28T15:51:52;31.27;;;18.23;;
48596;SDS011;34382;43.160;24.148;2024-02-28T15:53:24;28.23;;;18.00;;
48596;SDS011;34382;43.160;24.148;2024-02-28T15:54:57;26.90;;;17.48;;
48596;SDS011;34382;43.160;24.148;2024-02-28T15:56:29;30.63;;;17.17;;
48596;SDS011;34382;43.160;24.148;2024-02-28T15:58:02;32.28;;;17.48;;
48596;SDS011;34382;43.160;24.148;2024-02-28T15:59:34;30.15;;;18.17;;
48596;SDS011;34382;43.160;24.148;2024-02-28T16:01:11;30.50;;;17.52;;
48596;SDS011;34382;43.160;24.148;2024-02-28T16:02:44;34.80;;;19.23;;
48596;SDS011;34382;43.160;24.148;2024-02-28T16:04:16;35.05;;;20.63;;
48596;SDS011;34382;43.160;24.148;2024-02-28T16:05:48;38.78;;;21.27;;
48596;SDS011;34382;43.160;24.148;2024-02-28T16:07:21;41.88;;;23.58;;
48596;SDS011;34382;43.160;24.148;2024-02-28T16:08:54;40.33;;;24.27;;
48596;SDS011;34382;43.160;24.148;2024-02-28T16:10:26;40.70;;;22.23;;
48596;SDS011;34382;43.160;24.148;2024-02-28T16:11:58;35.67;;;22.92;;
48596;SDS011;34382;43.160;24.148;2024-02-28T16:13:30;59.47;;;32.38;;
48596;SDS011;34382;43.160;24.148;2024-02-28T16:15:03;41.40;;;27.38;;
48596;SDS011;34382;43.160;24.148;2024-02-28T16:16:35;42.80;;;26.38;;
48596;SDS011;34382;43.160;24.148;2024-02-28T16:18:07;42.72;;;26.48;;
48596;SDS011;34382;43.160;24.148;2024-02-28T16:19:41;40.33;;;24.60;;
48596;SDS011;34382;43.160;24.148;2024-02-28T16:21:14;32.40;;;19.40;;
48596;SDS011;34382;43.160;24.148;2024-02-28T16:39:18;44.92;;;31.52;;
48596;SDS011;34382;43.160;24.148;2024-02-28T16:40:52;30.42;;;17.63;;
48596;SDS011;34382;43.160;24.148;2024-02-28T16:42:25;27.15;;;17.65;;
